Newell, South Dakota
Current Conditions -  °F | °C
As of 1:35 AM on Friday 19 Dec 2014 (Local Time) from KSPF Reporting Station
Clear Clear  
Wind Chill: 27°   Ceiling: Unl
Heat Index: 32°   Visibility: 10mi
Dew Point: 18°   Wind: 5mph
Humidity: 55%   Direction: 250°WSW
Pressure: 29.98"   Gusts: NA
Location:  44.71°N, 103.42°W
Report Text: KSPF 190835Z AUTO 25004KT 10SM CLR 00/M08 A2998 RMK AO2
Loading
Personal Weather Stations






























Interactive Weather Map New forecast layout! Learn more

10-Day Weather Forecast

Advertisements
Track Severe Weather on mobile